Time;durP1;ratioP1;P1;durP2;ratioP2;P2;SDS_P1;SDS_P2;PMS_P1;PMS_P2;Temp;Humidity;BMP_temperature;BMP_pressure;BME280_temperature;BME280_humidity;BME280_pressure;Samples;Min_cycle;Max_cycle;Signal;HPM_P1;HPM_P2
2021/08/11 00:00:40;;;;;;;10.75;6.53;;;14.30;99.90;;;;;;3549138;40;20233;-43
2021/08/11 00:03:07;;;;;;;6.88;6.18;;;14.20;99.90;;;;;;3549343;40;20249;-42
2021/08/11 00:05:34;;;;;;;6.80;6.10;;;14.00;99.90;;;;;;3539466;40;20276;-42
2021/08/11 00:08:01;;;;;;;6.95;6.13;;;13.80;99.90;;;;;;3548903;40;20245;-42
2021/08/11 00:10:29;;;;;;;7.40;6.70;;;13.90;99.90;;;;;;3548010;40;20285;-43
2021/08/11 00:12:56;;;;;;;7.10;6.40;;;13.90;99.90;;;;;;3548240;40;20234;-42
2021/08/11 00:15:23;;;;;;;8.23;6.68;;;13.80;99.90;;;;;;3548794;40;20245;-43
2021/08/11 00:17:52;;;;;;;6.97;6.18;;;13.70;99.90;;;;;;3548786;40;20253;-42
2021/08/11 00:20:19;;;;;;;7.60;6.75;;;13.80;99.90;;;;;;3548803;40;20499;-43
2021/08/11 00:22:46;;;;;;;7.47;6.80;;;13.90;99.90;;;;;;3549127;40;20240;-42
2021/08/11 00:25:13;;;;;;;6.75;6.15;;;13.90;99.90;;;;;;3548572;40;20703;-43
2021/08/11 00:27:40;;;;;;;10.52;7.97;;;13.80;99.90;;;;;;3548799;40;20252;-43
2021/08/11 00:30:08;;;;;;;6.72;6.13;;;13.70;99.90;;;;;;3550645;40;20247;-43
2021/08/11 00:32:35;;;;;;;8.48;7.40;;;13.90;99.90;;;;;;3549603;40;20272;-43
2021/08/11 00:35:05;;;;;;;8.35;7.53;;;14.00;99.90;;;;;;3549470;40;20552;-42
2021/08/11 00:37:32;;;;;;;8.68;6.57;;;14.20;99.90;;;;;;3549190;40;20703;-42
2021/08/11 00:39:59;;;;;;;7.57;6.80;;;14.30;99.90;;;;;;3541596;40;20263;-43
2021/08/11 00:42:27;;;;;;;10.73;6.40;;;14.70;99.90;;;;;;3549628;40;20632;-43
2021/08/11 00:44:54;;;;;;;7.82;6.75;;;14.80;99.90;;;;;;3549690;40;20251;-42
2021/08/11 00:47:26;;;;;;;6.68;6.07;;;14.50;99.90;;;;;;3558559;40;20248;-44
2021/08/11 00:49:53;;;;;;;6.75;6.13;;;14.70;99.90;;;;;;3549286;40;20606;-45
2021/08/11 00:52:23;;;;;;;6.47;5.85;;;14.70;99.90;;;;;;3558913;40;20636;-42
2021/08/11 00:54:54;;;;;;;8.35;7.50;;;14.80;99.90;;;;;;3549201;40;20240;-42
2021/08/11 00:57:23;;;;;;;12.95;6.47;;;14.90;99.90;;;;;;3549394;40;20299;-43
2021/08/11 00:59:52;;;;;;;9.25;6.35;;;14.90;99.90;;;;;;3549710;40;20239;-42
2021/08/11 01:02:21;;;;;;;7.47;6.35;;;14.80;99.90;;;;;;3549280;40;20335;-44
2021/08/11 01:04:54;;;;;;;6.47;5.88;;;14.80;99.90;;;;;;3548886;40;20232;-42
2021/08/11 01:07:26;;;;;;;7.50;5.65;;;15.00;99.90;;;;;;3558585;40;20240;-43
2021/08/11 01:09:55;;;;;;;6.35;5.65;;;15.10;99.90;;;;;;3558713;40;20336;-42
2021/08/11 01:12:23;;;;;;;6.40;5.72;;;15.20;99.90;;;;;;3549058;40;20252;-44
2021/08/11 01:14:51;;;;;;;6.15;5.55;;;15.10;99.90;;;;;;3556398;40;20505;-42
2021/08/11 01:17:19;;;;;;;6.18;5.68;;;15.20;99.90;;;;;;3539636;40;20316;-43
2021/08/11 01:19:47;;;;;;;6.90;6.32;;;15.20;99.90;;;;;;3539284;40;20237;-43
2021/08/11 01:22:22;;;;;;;5.95;5.25;;;15.20;99.90;;;;;;3548927;40;20613;-43
2021/08/11 01:25:02;;;;;;;9.55;5.78;;;15.20;99.90;;;;;;3539460;40;20241;-42
2021/08/11 01:27:46;;;;;;;5.88;5.35;;;15.10;99.90;;;;;;3539001;40;20252;-43
2021/08/11 01:30:22;;;;;;;6.82;5.75;;;15.10;99.90;;;;;;3542139;40;20251;-42
2021/08/11 01:33:24;;;;;;;7.20;5.75;;;15.10;99.90;;;;;;3548989;40;20242;-44
2021/08/11 01:35:59;;;;;;;5.53;5.07;;;15.20;99.90;;;;;;3549036;40;20256;-42
2021/08/11 01:38:30;;;;;;;6.68;4.88;;;14.90;99.90;;;;;;3558979;40;20247;-43
2021/08/11 01:41:02;;;;;;;6.18;5.57;;;14.80;99.90;;;;;;3548917;40;20248;-43
2021/08/11 01:43:37;;;;;;;6.65;5.35;;;14.90;99.90;;;;;;3549571;40;20611;-43
2021/08/11 01:46:06;;;;;;;7.35;6.50;;;14.90;99.90;;;;;;3557435;40;20251;-42
2021/08/11 01:48:39;;;;;;;7.95;6.55;;;15.00;99.90;;;;;;3548899;40;20241;-44
2021/08/11 01:51:08;;;;;;;7.95;7.25;;;14.90;99.90;;;;;;3548996;40;20715;-42
2021/08/11 01:53:35;;;;;;;9.98;7.35;;;14.70;99.90;;;;;;3549183;40;20237;-42
2021/08/11 01:56:08;;;;;;;10.23;6.32;;;14.30;99.90;;;;;;3548698;40;20263;-42
2021/08/11 01:58:43;;;;;;;9.73;8.20;;;14.20;99.90;;;;;;3549060;40;20276;-42
2021/08/11 02:01:12;;;;;;;9.45;6.90;;;14.40;99.90;;;;;;3549028;40;20255;-43
2021/08/11 02:03:44;;;;;;;8.35;7.50;;;14.60;99.90;;;;;;3548993;40;20240;-44
2021/08/11 02:06:11;;;;;;;7.93;7.13;;;14.70;99.90;;;;;;3542309;40;20627;-43
2021/08/11 02:08:42;;;;;;;11.80;7.60;;;14.70;99.90;;;;;;3538990;40;20237;-42
2021/08/11 02:11:13;;;;;;;10.57;7.35;;;14.70;99.90;;;;;;3539137;40;20241;-42
2021/08/11 02:13:41;;;;;;;9.23;7.38;;;14.70;99.90;;;;;;3538875;40;20237;-44
2021/08/11 02:16:11;;;;;;;8.40;7.60;;;14.70;99.90;;;;;;3538940;40;20613;-42
2021/08/11 02:18:39;;;;;;;7.97;7.15;;;14.80;99.90;;;;;;3548333;40;20616;-43
2021/08/11 02:21:07;;;;;;;10.57;7.55;;;14.90;99.90;;;;;;3538687;40;20233;-43
2021/08/11 02:23:36;;;;;;;8.85;7.13;;;14.90;99.90;;;;;;3539149;40;20566;-42
2021/08/11 02:26:13;;;;;;;8.93;7.32;;;14.80;99.90;;;;;;3539062;40;20241;-43
2021/08/11 02:28:54;;;;;;;12.30;7.88;;;14.80;99.90;;;;;;3546336;40;20237;-43
2021/08/11 02:31:30;;;;;;;8.00;7.13;;;14.70;99.90;;;;;;3554429;40;20323;-43
2021/08/11 02:34:04;;;;;;;9.18;8.18;;;14.70;99.90;;;;;;3549007;40;20236;-44
2021/08/11 02:36:45;;;;;;;6.60;6.00;;;14.70;99.90;;;;;;3540609;40;20245;-43
2021/08/11 02:39:15;;;;;;;8.27;7.15;;;14.80;99.90;;;;;;3536693;40;20251;-42
2021/08/11 02:41:48;;;;;;;10.07;7.78;;;14.50;99.90;;;;;;3538565;40;20270;-43
2021/08/11 02:44:21;;;;;;;8.70;7.68;;;14.40;99.90;;;;;;3538566;40;20248;-45
2021/08/11 02:46:50;;;;;;;7.50;6.78;;;14.20;99.90;;;;;;3538690;40;20657;-43
2021/08/11 02:49:25;;;;;;;9.70;8.20;;;14.20;99.90;;;;;;3538720;40;20329;-43
2021/08/11 02:51:56;;;;;;;7.40;6.53;;;14.30;99.90;;;;;;3538640;40;20240;-43
2021/08/11 02:54:26;;;;;;;8.10;6.95;;;14.50;99.90;;;;;;3547946;40;20636;-44
2021/08/11 02:56:54;;;;;;;9.60;7.60;;;14.70;99.90;;;;;;3542034;40;20236;-43
2021/08/11 02:59:23;;;;;;;8.90;8.00;;;14.80;99.90;;;;;;3548732;40;20257;-43
2021/08/11 03:01:51;;;;;;;7.72;7.07;;;14.80;99.90;;;;;;3548600;40;20271;-43
2021/08/11 03:04:19;;;;;;;8.93;7.90;;;14.90;99.90;;;;;;3548400;40;20255;-42
2021/08/11 03:06:51;;;;;;;8.82;8.02;;;14.80;99.90;;;;;;3548915;40;20249;-44
2021/08/11 03:09:22;;;;;;;11.13;9.10;;;14.70;99.90;;;;;;3548719;40;20236;-44
2021/08/11 03:11:49;;;;;;;10.13;8.55;;;14.50;99.90;;;;;;3548894;40;20236;-46
2021/08/11 03:14:18;;;;;;;10.23;7.47;;;14.50;99.90;;;;;;3540323;40;20252;-43
2021/08/11 03:16:46;;;;;;;11.70;9.38;;;14.50;99.90;;;;;;3548429;40;20287;-43
2021/08/11 03:19:17;;;;;;;8.57;7.78;;;14.50;99.90;;;;;;3548482;40;20236;-43
2021/08/11 03:21:46;;;;;;;9.88;8.93;;;14.50;99.90;;;;;;3548683;40;20587;-42
2021/08/11 03:24:17;;;;;;;9.43;8.52;;;14.40;99.90;;;;;;3548633;40;20608;-43
2021/08/11 03:26:46;;;;;;;13.65;9.70;;;14.20;99.90;;;;;;3548953;40;20596;-42
2021/08/11 03:29:31;;;;;;;9.93;8.95;;;13.90;99.90;;;;;;3536286;40;20291;-44
2021/08/11 03:31:59;;;;;;;9.70;8.80;;;13.90;99.90;;;;;;3529151;40;20511;-42
2021/08/11 03:34:28;;;;;;;9.95;8.95;;;13.80;99.90;;;;;;3552482;40;20244;-42
2021/08/11 03:36:57;;;;;;;9.27;8.27;;;13.90;99.90;;;;;;3547828;40;20635;-43
2021/08/11 03:39:24;;;;;;;16.60;11.90;;;14.00;99.90;;;;;;3557639;40;20600;-43
2021/08/11 03:41:52;;;;;;;13.82;11.20;;;14.10;99.90;;;;;;3557646;40;20253;-42
2021/08/11 03:44:21;;;;;;;12.75;9.07;;;13.90;99.90;;;;;;3548669;40;20267;-43
2021/08/11 03:46:50;;;;;;;11.40;10.40;;;13.90;99.90;;;;;;3548131;40;20288;-42
2021/08/11 03:49:19;;;;;;;11.65;10.50;;;14.00;99.90;;;;;;3547958;40;20616;-43
2021/08/11 03:51:47;;;;;;;10.10;9.20;;;14.10;99.90;;;;;;3556579;40;20240;-43
2021/08/11 03:54:14;;;;;;;14.50;10.80;;;14.20;99.90;;;;;;3548112;40;20239;-42
2021/08/11 03:56:41;;;;;;;9.50;8.60;;;14.20;99.90;;;;;;3547874;40;20529;-42
2021/08/11 03:59:10;;;;;;;10.85;9.85;;;14.30;99.90;;;;;;3540245;40;20252;-43
2021/08/11 04:01:38;;;;;;;11.85;9.73;;;14.30;99.90;;;;;;3548442;40;20252;-44
2021/08/11 04:04:05;;;;;;;10.73;9.73;;;14.40;99.90;;;;;;3550826;40;20535;-43
2021/08/11 04:06:32;;;;;;;10.20;9.27;;;14.40;99.90;;;;;;3548658;40;20237;-43
2021/08/11 04:08:59;;;;;;;12.82;10.18;;;14.30;99.90;;;;;;3549154;40;20245;-43
2021/08/11 04:11:26;;;;;;;11.00;9.82;;;14.10;99.90;;;;;;3549029;40;20241;-44
2021/08/11 04:13:53;;;;;;;12.57;10.55;;;14.00;99.90;;;;;;3548924;40;20288;-43
2021/08/11 04:16:22;;;;;;;16.08;13.07;;;14.00;99.90;;;;;;3548381;40;20645;-43
2021/08/11 04:18:49;;;;;;;13.43;11.18;;;14.40;99.90;;;;;;3549409;40;20514;-42
2021/08/11 04:21:16;;;;;;;15.35;10.95;;;13.60;99.90;;;;;;3549215;40;20245;-42
2021/08/11 04:23:43;;;;;;;12.77;11.43;;;13.30;99.90;;;;;;3548822;40;20273;-43
2021/08/11 04:26:10;;;;;;;18.10;12.38;;;13.20;99.90;;;;;;3548379;40;20248;-43
2021/08/11 04:28:37;;;;;;;14.25;12.75;;;13.20;99.90;;;;;;3549038;40;20249;-44
2021/08/11 04:31:04;;;;;;;15.75;13.32;;;13.40;99.90;;;;;;3549045;40;20240;-42
2021/08/11 04:33:32;;;;;;;15.20;13.65;;;13.50;99.90;;;;;;3548829;40;20230;-44
2021/08/11 04:35:59;;;;;;;14.10;11.70;;;13.60;99.90;;;;;;3548484;40;20239;-44
2021/08/11 04:38:26;;;;;;;14.10;12.73;;;13.80;99.90;;;;;;3548486;40;20285;-42
2021/08/11 04:41:13;;;;;;;12.90;11.57;;;14.00;99.90;;;;;;3548638;40;20243;-43
2021/08/11 04:43:40;;;;;;;15.05;12.95;;;14.20;99.90;;;;;;3549474;40;20269;-44
2021/08/11 04:46:07;;;;;;;14.23;12.57;;;14.30;99.90;;;;;;3548206;40;20259;-42
2021/08/11 04:48:36;;;;;;;12.85;11.57;;;13.90;99.90;;;;;;3548429;40;20652;-42
2021/08/11 04:51:03;;;;;;;13.15;11.77;;;13.70;99.90;;;;;;3549098;40;20613;-44
2021/08/11 04:53:30;;;;;;;17.00;12.82;;;13.70;99.90;;;;;;3548867;40;20249;-44
2021/08/11 04:55:56;;;;;;;18.42;13.95;;;13.60;99.90;;;;;;3548400;40;20260;-42
2021/08/11 04:58:23;;;;;;;14.38;12.88;;;13.70;99.90;;;;;;3548550;40;20280;-43
2021/08/11 05:00:50;;;;;;;14.45;12.82;;;13.60;99.90;;;;;;3548909;40;20248;-43
2021/08/11 05:03:17;;;;;;;19.30;14.50;;;13.80;99.90;;;;;;3548523;40;20241;-42
2021/08/11 05:05:45;;;;;;;19.25;15.70;;;13.90;99.90;;;;;;3548245;40;20271;-42
2021/08/11 05:08:12;;;;;;;19.50;15.18;;;14.00;99.90;;;;;;3548814;40;20265;-43
2021/08/11 05:10:39;;;;;;;17.50;13.35;;;14.10;99.90;;;;;;3549139;40;20240;-42
2021/08/11 05:13:06;;;;;;;17.70;15.40;;;13.80;99.90;;;;;;3548613;40;20233;-43
2021/08/11 05:15:33;;;;;;;15.40;12.98;;;13.70;99.90;;;;;;3548314;40;20511;-42
2021/08/11 05:18:00;;;;;;;21.40;14.52;;;13.70;99.90;;;;;;3548697;40;20251;-44
2021/08/11 05:20:27;;;;;;;16.67;14.95;;;13.60;99.90;;;;;;3548123;40;20629;-43
2021/08/11 05:22:56;;;;;;;19.80;16.58;;;13.90;99.90;;;;;;3549265;40;20256;-43
2021/08/11 05:25:23;;;;;;;15.65;13.85;;;14.00;99.90;;;;;;3548056;40;20236;-43
2021/08/11 05:27:50;;;;;;;20.92;16.35;;;14.20;99.90;;;;;;3538935;40;20253;-43
2021/08/11 05:30:17;;;;;;;17.15;15.20;;;14.30;99.90;;;;;;3547343;40;20233;-44
2021/08/11 05:32:43;;;;;;;16.75;14.27;;;14.40;99.90;;;;;;3549250;40;20249;-44
2021/08/11 05:35:11;;;;;;;19.83;14.50;;;14.50;99.90;;;;;;3547980;40;20241;-43
2021/08/11 05:37:39;;;;;;;21.83;17.20;;;14.60;99.90;;;;;;3548372;40;20257;-43
2021/08/11 05:40:09;;;;;;;23.13;16.70;;;14.90;99.90;;;;;;3548006;40;20265;-46
2021/08/11 05:42:36;;;;;;;19.95;16.85;;;15.00;99.90;;;;;;3548604;40;20240;-43
2021/08/11 05:45:03;;;;;;;19.02;16.17;;;15.00;99.90;;;;;;3546601;40;20264;-42
2021/08/11 05:47:31;;;;;;;19.10;17.02;;;15.00;99.90;;;;;;3547174;40;20254;-42
2021/08/11 05:49:58;;;;;;;23.60;19.13;;;15.10;99.90;;;;;;3543541;40;20326;-42
2021/08/11 05:52:25;;;;;;;21.80;19.33;;;15.30;99.90;;;;;;3544719;40;20285;-43
2021/08/11 05:54:52;;;;;;;26.25;22.45;;;15.30;99.90;;;;;;3545863;40;20278;-43
2021/08/11 05:57:21;;;;;;;26.90;20.58;;;15.60;99.90;;;;;;3544891;40;20352;-43
2021/08/11 05:59:48;;;;;;;25.00;21.88;;;15.70;99.90;;;;;;3538412;40;20248;-42
2021/08/11 06:02:16;;;;;;;27.75;21.10;;;15.90;99.90;;;;;;3547976;40;20325;-44
2021/08/11 06:04:53;;;;;;;30.60;23.70;;;15.80;99.90;;;;;;3539074;40;20264;-42
2021/08/11 06:07:21;;;;;;;28.42;23.55;;;16.10;99.90;;;;;;3548418;40;20233;-43
2021/08/11 06:09:48;;;;;;;30.33;23.35;;;16.30;99.90;;;;;;3546908;40;20245;-44
2021/08/11 06:12:14;;;;;;;24.98;21.75;;;16.20;99.90;;;;;;3550827;40;20248;-42
2021/08/11 06:14:43;;;;;;;22.92;20.55;;;16.20;99.90;;;;;;3552487;40;20240;-42
2021/08/11 06:17:10;;;;;;;23.35;18.33;;;16.10;99.90;;;;;;3551138;40;20244;-44
2021/08/11 06:19:37;;;;;;;28.02;21.45;;;16.20;99.90;;;;;;3556938;40;20233;-43
2021/08/11 06:22:04;;;;;;;26.20;21.90;;;16.20;99.90;;;;;;3546321;40;20237;-43
2021/08/11 06:24:31;;;;;;;28.88;24.33;;;16.30;99.90;;;;;;3547861;40;20528;-43
2021/08/11 06:26:59;;;;;;;25.73;22.98;;;16.30;99.90;;;;;;3548160;40;20279;-44
2021/08/11 06:29:26;;;;;;;32.42;23.67;;;16.40;99.90;;;;;;3555445;40;20248;-42
2021/08/11 06:31:54;;;;;;;32.53;25.92;;;16.50;99.90;;;;;;3547799;40;20244;-43
2021/08/11 06:34:23;;;;;;;36.05;28.10;;;16.60;99.90;;;;;;3555598;40;20589;-43
2021/08/11 06:36:51;;;;;;;35.78;27.40;;;16.80;99.90;;;;;;3546601;40;20261;-43
2021/08/11 06:39:18;;;;;;;40.40;30.17;;;16.80;99.90;;;;;;3541598;40;20265;-44
2021/08/11 06:41:45;;;;;;;33.35;28.33;;;16.70;99.90;;;;;;3546451;40;20276;-43
2021/08/11 06:44:18;;;;;;;37.22;27.70;;;16.70;99.90;;;;;;3536637;40;20300;-43
2021/08/11 06:46:46;;;;;;;40.00;28.38;;;16.70;99.90;;;;;;3544864;40;20250;-43
2021/08/11 06:49:16;;;;;;;40.28;29.45;;;16.70;99.90;;;;;;3538771;40;20244;-43
2021/08/11 06:51:43;;;;;;;38.70;29.17;;;16.80;99.90;;;;;;3546747;40;20253;-43
2021/08/11 06:54:12;;;;;;;35.17;28.48;;;16.80;99.90;;;;;;3551023;40;20233;-42
2021/08/11 06:56:40;;;;;;;35.83;28.55;;;16.90;99.90;;;;;;3615910;23;20264;-77
2021/08/11 06:59:07;;;;;;;43.92;32.00;;;16.90;99.90;;;;;;3565638;40;20452;-77
2021/08/11 07:01:34;;;;;;;40.35;30.50;;;16.90;99.90;;;;;;3565682;40;20255;-78
2021/08/11 07:04:02;;;;;;;37.20;28.27;;;17.00;99.90;;;;;;3566365;40;20640;-77
2021/08/11 07:06:30;;;;;;;35.05;29.15;;;17.10;99.90;;;;;;3566607;40;20487;-78
2021/08/11 07:08:57;;;;;;;36.65;26.75;;;17.20;99.90;;;;;;3566282;40;20554;-78
2021/08/11 07:11:24;;;;;;;35.03;28.65;;;17.20;99.90;;;;;;3560427;40;20233;-78
2021/08/11 07:13:51;;;;;;;38.53;29.33;;;17.30;99.90;;;;;;3571652;40;20235;-78
2021/08/11 07:16:19;;;;;;;37.72;28.42;;;17.50;99.90;;;;;;3557833;40;20244;-78
2021/08/11 07:18:46;;;;;;;31.92;26.92;;;17.50;99.90;;;;;;3570727;40;20205;-78
2021/08/11 07:21:13;;;;;;;35.25;26.67;;;17.40;99.90;;;;;;3571136;40;20598;-78
2021/08/11 07:23:41;;;;;;;32.88;26.20;;;17.50;99.90;;;;;;3571205;40;20228;-79
2021/08/11 07:26:09;;;;;;;34.63;26.98;;;17.70;99.90;;;;;;3571238;40;20243;-79
2021/08/11 07:28:36;;;;;;;37.00;27.35;;;17.80;99.90;;;;;;3562997;40;20239;-77
2021/08/11 07:31:04;;;;;;;34.67;24.70;;;17.80;99.90;;;;;;3571622;40;20782;-84
2021/08/11 07:33:31;;;;;;;31.48;25.27;;;17.70;99.90;;;;;;3570084;40;20704;-78
2021/08/11 07:35:58;;;;;;;32.33;26.58;;;17.70;99.90;;;;;;3561163;40;20660;-78
2021/08/11 07:38:25;;;;;;;30.45;23.55;;;17.90;99.90;;;;;;3564197;40;20232;-78
2021/08/11 07:40:54;;;;;;;27.77;23.65;;;17.90;99.90;;;;;;3562471;40;20231;-78
2021/08/11 07:43:21;;;;;;;27.08;23.33;;;18.20;99.90;;;;;;3563122;40;20252;-79
2021/08/11 07:45:49;;;;;;;29.52;23.98;;;18.10;99.90;;;;;;3572453;40;20216;-78
2021/08/11 07:48:16;;;;;;;28.83;23.98;;;18.30;99.90;;;;;;3572693;40;20236;-79
2021/08/11 07:50:43;;;;;;;27.85;23.73;;;18.50;99.90;;;;;;3564426;40;20240;-83
2021/08/11 07:53:10;;;;;;;29.30;24.63;;;18.40;99.90;;;;;;3573406;40;20247;-81
2021/08/11 07:55:37;;;;;;;29.27;23.67;;;18.30;99.90;;;;;;3572966;40;20249;-78
2021/08/11 07:58:06;;;;;;;26.27;22.02;;;18.40;99.90;;;;;;3573283;40;20212;-76
2021/08/11 08:00:33;;;;;;;27.63;22.83;;;18.60;99.90;;;;;;3572718;40;20225;-77
2021/08/11 08:03:00;;;;;;;27.08;22.58;;;18.70;99.90;;;;;;3572824;40;20237;-80
2021/08/11 08:05:27;;;;;;;21.17;17.92;;;19.10;99.90;;;;;;3572885;40;20213;-78
2021/08/11 08:07:54;;;;;;;24.52;20.90;;;19.00;99.90;;;;;;3572795;40;20252;-82
2021/08/11 08:10:21;;;;;;;24.17;21.38;;;19.20;99.90;;;;;;3564125;40;20236;-78
2021/08/11 08:12:50;;;;;;;23.30;20.20;;;19.00;99.90;;;;;;3565338;40;20253;-80
2021/08/11 08:15:19;;;;;;;24.33;20.05;;;19.10;99.90;;;;;;3572329;40;20240;-78
2021/08/11 08:17:47;;;;;;;22.65;20.23;;;19.20;99.90;;;;;;3572691;40;20243;-78
2021/08/11 08:20:14;;;;;;;23.67;20.15;;;19.50;99.90;;;;;;3572804;40;20240;-81
2021/08/11 08:22:42;;;;;;;27.70;19.85;;;19.30;99.90;;;;;;3572756;40;20240;-79
2021/08/11 08:25:11;;;;;;;22.67;20.33;;;19.00;99.90;;;;;;3572343;40;20320;-78
2021/08/11 08:27:38;;;;;;;26.00;21.30;;;19.10;99.90;;;;;;3563412;40;20244;-78
2021/08/11 08:30:07;;;;;;;22.80;20.40;;;19.30;99.90;;;;;;3572930;40;20306;-77
2021/08/11 08:32:35;;;;;;;25.50;21.63;;;19.50;99.90;;;;;;3570374;40;20237;-79
2021/08/11 08:35:02;;;;;;;24.02;20.55;;;19.50;99.90;;;;;;3571067;40;20236;-77
2021/08/11 08:37:31;;;;;;;21.25;19.02;;;20.00;99.90;;;;;;3563699;40;20240;-78
2021/08/11 08:39:59;;;;;;;23.45;20.65;;;20.00;99.90;;;;;;3570573;40;20240;-78
2021/08/11 08:42:26;;;;;;;21.13;18.90;;;19.90;99.90;;;;;;3562427;40;21247;-78
2021/08/11 08:44:53;;;;;;;22.17;19.17;;;20.00;99.90;;;;;;3570632;40;20228;-80
2021/08/11 08:47:22;;;;;;;22.63;20.13;;;20.00;99.90;;;;;;3571200;40;20232;-78
2021/08/11 08:49:52;;;;;;;18.63;16.60;;;20.00;99.90;;;;;;3570827;40;20256;-77
2021/08/11 08:52:20;;;;;;;19.00;17.10;;;19.80;99.90;;;;;;3570925;40;20247;-80
2021/08/11 08:54:48;;;;;;;21.33;15.95;;;19.80;99.90;;;;;;3571554;40;20240;-78
2021/08/11 08:57:16;;;;;;;20.70;18.70;;;19.90;99.90;;;;;;3571503;40;20225;-81
2021/08/11 08:59:44;;;;;;;16.00;13.60;;;19.80;99.90;;;;;;3571915;40;20677;-78
2021/08/11 09:02:12;;;;;;;15.18;13.55;;;19.80;99.90;;;;;;3570888;40;20252;-79
2021/08/11 09:04:40;;;;;;;19.75;16.85;;;19.70;99.90;;;;;;3569920;40;20976;-81
2021/08/11 09:07:10;;;;;;;24.20;18.30;;;19.80;99.90;;;;;;3572691;40;20691;-80
2021/08/11 09:09:40;;;;;;;20.63;16.60;;;19.70;99.90;;;;;;3572128;40;20256;-76
2021/08/11 09:12:12;;;;;;;18.23;16.42;;;19.90;99.90;;;;;;3570515;40;20269;-83
2021/08/11 09:14:41;;;;;;;18.42;16.23;;;20.10;99.90;;;;;;3571387;40;20921;-78
2021/08/11 09:17:09;;;;;;;19.27;17.02;;;20.20;99.90;;;;;;3564908;40;20243;-77
2021/08/11 09:19:40;;;;;;;20.08;17.42;;;20.00;99.90;;;;;;3571570;40;20618;-78
2021/08/11 09:22:10;;;;;;;17.05;15.18;;;20.00;99.90;;;;;;3571959;40;20236;-76
2021/08/11 09:24:40;;;;;;;20.90;15.88;;;20.30;99.90;;;;;;3564934;40;20247;-78
2021/08/11 09:27:24;;;;;;;16.85;13.52;;;20.80;99.90;;;;;;3573100;40;20280;-77
2021/08/11 09:30:07;;;;;;;15.57;13.93;;;20.80;99.90;;;;;;3562817;40;20259;-78
2021/08/11 09:32:50;;;;;;;18.27;13.95;;;21.00;99.90;;;;;;3570630;40;20232;-78
2021/08/11 09:35:20;;;;;;;17.85;14.95;;;21.00;99.90;;;;;;3572896;40;20247;-76
2021/08/11 09:37:49;;;;;;;14.82;13.32;;;20.70;99.90;;;;;;3566390;40;20356;-77
2021/08/11 09:40:18;;;;;;;14.73;9.38;;;20.80;99.90;;;;;;3563250;40;20284;-76
2021/08/11 09:42:46;;;;;;;10.38;9.25;;;20.70;99.90;;;;;;3564828;40;20236;-76
2021/08/11 09:45:14;;;;;;;11.02;9.93;;;20.80;99.90;;;;;;3566891;40;20268;-76
2021/08/11 09:47:55;;;;;;;11.90;10.10;;;21.10;99.90;;;;;;3563412;40;20678;-77
2021/08/11 09:50:37;;;;;;;11.77;10.60;;;21.30;99.90;;;;;;3568794;40;20256;-76
2021/08/11 09:53:07;;;;;;;11.48;10.23;;;21.30;99.90;;;;;;3560034;40;20237;-77
2021/08/11 09:55:54;;;;;;;12.23;10.88;;;21.20;99.90;;;;;;3569531;40;20644;-76
2021/08/11 09:58:21;;;;;;;12.55;9.90;;;21.30;99.90;;;;;;3570090;40;20248;-77
2021/08/11 10:00:48;;;;;;;11.68;9.18;;;21.30;99.90;;;;;;3570644;40;20528;-77
2021/08/11 10:03:15;;;;;;;9.52;8.60;;;21.40;99.90;;;;;;3560203;40;20233;-80
2021/08/11 10:05:44;;;;;;;10.32;8.35;;;21.60;99.90;;;;;;3570354;40;20232;-77
2021/08/11 10:08:12;;;;;;;11.27;8.50;;;21.60;99.90;;;;;;3570433;40;20236;-77
2021/08/11 10:10:47;;;;;;;10.35;8.77;;;21.80;99.90;;;;;;3566393;40;20251;-78
2021/08/11 10:13:17;;;;;;;10.15;9.15;;;21.60;99.90;;;;;;3564905;40;20251;-77
2021/08/11 10:15:44;;;;;;;13.25;9.65;;;21.70;99.90;;;;;;3570065;40;20256;-78
2021/08/11 10:18:13;;;;;;;9.70;8.70;;;21.80;99.90;;;;;;3567997;40;20273;-78
2021/08/11 10:20:41;;;;;;;10.05;9.07;;;22.00;99.90;;;;;;3570376;40;20797;-77
2021/08/11 10:23:08;;;;;;;10.57;9.23;;;21.90;99.90;;;;;;3569240;40;20595;-77
2021/08/11 10:25:37;;;;;;;9.48;8.52;;;22.10;99.90;;;;;;3571501;40;20244;-79
2021/08/11 10:28:05;;;;;;;8.93;7.55;;;22.20;99.90;;;;;;3563547;40;20240;-77
2021/08/11 10:30:33;;;;;;;10.45;7.28;;;22.00;99.90;;;;;;3572145;40;20244;-78
2021/08/11 10:33:02;;;;;;;9.40;7.05;;;22.10;99.90;;;;;;3563378;40;20315;-83
2021/08/11 10:35:31;;;;;;;10.43;6.88;;;22.30;99.90;;;;;;3571662;40;20236;-78
2021/08/11 10:37:59;;;;;;;6.75;6.05;;;22.40;99.90;;;;;;3568309;40;20708;-78
2021/08/11 10:40:26;;;;;;;7.95;7.15;;;22.40;99.90;;;;;;3571815;40;20233;-78
2021/08/11 10:42:56;;;;;;;7.78;6.88;;;22.50;99.90;;;;;;3570422;40;20275;-79
2021/08/11 10:45:26;;;;;;;7.30;6.32;;;22.50;99.90;;;;;;3570769;40;20276;-78
2021/08/11 10:47:53;;;;;;;8.52;7.18;;;22.70;99.90;;;;;;3561393;40;20276;-78
2021/08/11 10:50:20;;;;;;;7.45;5.97;;;22.90;99.90;;;;;;3571432;40;20713;-80
2021/08/11 10:53:08;;;;;;;7.30;5.93;;;23.20;99.90;;;;;;3572130;40;20228;-87
2021/08/11 10:55:43;;;;;;;8.82;6.40;;;23.10;99.90;;;;;;3571398;40;20224;-80
2021/08/11 10:58:11;;;;;;;7.75;6.05;;;22.80;99.90;;;;;;3571869;40;20244;-79
2021/08/11 11:00:43;;;;;;;6.18;5.43;;;23.00;99.90;;;;;;3563413;40;20236;-78
2021/08/11 11:03:21;;;;;;;;;;;;;;;;;;;;;
2021/08/11 11:05:54;;;;;;;8.30;6.80;;;23.70;99.90;;;;;;3571358;40;20251;-78
2021/08/11 11:08:36;;;;;;;7.13;5.10;;;24.00;99.90;;;;;;3563329;40;20290;-79
2021/08/11 11:11:36;;;;;;;5.78;4.80;;;24.00;99.90;;;;;;3571394;40;20252;-78
2021/08/11 11:14:08;;;;;;;6.63;4.93;;;24.30;99.90;;;;;;3573317;40;20244;-78
2021/08/11 11:17:12;;;;;;;6.40;4.72;;;24.60;99.90;;;;;;3573019;40;20239;-78
2021/08/11 11:20:25;;;;;;;5.70;5.10;;;24.40;99.90;;;;;;3559338;40;20785;-77
2021/08/11 11:22:57;;;;;;;7.75;5.30;;;24.00;99.90;;;;;;3556589;40;20249;-76
2021/08/11 11:26:05;;;;;;;5.55;4.80;;;24.10;99.90;;;;;;3572981;40;20268;-79
2021/08/11 11:29:08;;;;;;;7.07;4.90;;;23.90;99.90;;;;;;3574908;40;20259;-83
2021/08/11 11:31:42;;;;;;;5.25;4.65;;;23.80;99.90;;;;;;3524520;40;20235;-83
2021/08/11 11:34:36;;;;;;;7.60;5.65;;;23.70;99.90;;;;;;3524896;40;20264;-77
2021/08/11 11:37:26;;;;;;;6.82;4.88;;;24.20;99.90;;;;;;3558755;40;20293;-77
2021/08/11 11:40:10;;;;;;;7.00;5.25;;;24.00;99.90;;;;;;3565738;40;20247;-78
2021/08/11 11:42:37;;;;;;;6.88;5.88;;;24.30;99.90;;;;;;3564545;40;20224;-78
2021/08/11 11:45:08;;;;;;;6.88;4.95;;;24.10;99.90;;;;;;3564213;40;20245;-78
2021/08/11 11:48:09;;;;;;;6.10;5.50;;;23.70;99.90;;;;;;3547705;40;20233;-85
2021/08/11 11:50:43;;;;;;;7.15;4.60;;;23.70;99.90;;;;;;3567530;40;20220;-77
2021/08/11 11:53:25;;;;;;;8.45;5.82;;;23.00;99.90;;;;;;3571972;40;20238;-77
2021/08/11 11:55:52;;;;;;;6.00;4.88;;;22.80;99.90;;;;;;3572298;40;20296;-81
2021/08/11 11:58:21;;;;;;;6.30;5.18;;;22.70;99.90;;;;;;3574709;40;20240;-81
2021/08/11 12:00:57;;;;;;;6.47;5.85;;;22.70;99.90;;;;;;3566232;40;20232;-80
2021/08/11 12:03:33;;;;;;;10.25;5.63;;;23.00;99.90;;;;;;3574708;40;20325;-80
2021/08/11 12:06:00;;;;;;;8.10;5.10;;;22.80;99.90;;;;;;3574544;40;20243;-80
2021/08/11 12:08:28;;;;;;;7.22;5.75;;;23.00;99.90;;;;;;3569245;40;20259;-80
2021/08/11 12:11:02;;;;;;;9.77;5.35;;;23.60;99.90;;;;;;3574797;40;20247;-81
2021/08/11 12:13:46;;;;;;;7.00;5.57;;;24.10;99.90;;;;;;3563643;40;20263;-81
2021/08/11 12:16:18;;;;;;;7.95;5.38;;;24.50;99.90;;;;;;3573858;40;20243;-81
2021/08/11 12:18:47;;;;;;;7.38;6.07;;;24.50;99.90;;;;;;3574457;40;20249;-82
2021/08/11 12:21:16;;;;;;;5.78;5.18;;;24.60;99.90;;;;;;3574591;40;20244;-86
2021/08/11 12:23:46;;;;;;;5.55;4.65;;;24.60;99.90;;;;;;3574444;40;20243;-79
2021/08/11 12:26:15;;;;;;;6.78;4.57;;;24.90;99.90;;;;;;3572709;40;20798;-80
2021/08/11 12:28:49;;;;;;;7.75;5.63;;;25.40;99.90;;;;;;3564447;40;20291;-84
2021/08/11 12:31:22;;;;;;;5.78;4.60;;;25.60;99.90;;;;;;3572463;40;20217;-81
2021/08/11 12:33:51;;;;;;;5.95;4.40;;;25.10;99.90;;;;;;3564430;40;20287;-80
2021/08/11 12:36:20;;;;;;;6.22;5.07;;;24.70;99.90;;;;;;3572752;40;20232;-83
2021/08/11 12:39:03;;;;;;;6.72;4.32;;;24.20;99.90;;;;;;3564391;40;20588;-82
2021/08/11 12:41:32;;;;;;;4.95;3.75;;;24.40;99.90;;;;;;3572599;40;20671;-82
2021/08/11 12:44:11;;;;;;;9.95;5.53;;;24.70;99.90;;;;;;3571418;40;20236;-82
2021/08/11 12:46:46;;;;;;;5.30;4.45;;;24.90;99.90;;;;;;3571164;40;20296;-80
2021/08/11 12:49:15;;;;;;;5.93;4.55;;;25.00;99.90;;;;;;3571604;40;20290;-80
2021/08/11 12:51:42;;;;;;;5.85;4.50;;;25.00;99.90;;;;;;3571841;40;20240;-79
2021/08/11 12:54:12;;;;;;;7.35;4.68;;;25.40;99.90;;;;;;3560886;40;20256;-80